Time;durP1;ratioP1;P1;durP2;ratioP2;P2;SDS_P1;SDS_P2;PMS_P1;PMS_P2;Temp;Humidity;BMP_temperature;BMP_pressure;BME280_temperature;BME280_humidity;BME280_pressure;Samples;Min_cycle;Max_cycle;Signal;HPM_P1;HPM_P2
2024/01/04 05:43:08;;;;;;;9.10;7.20;;;;;;;5.41;100.00;98096.76;108135;270;603653;-74
2024/01/04 05:45:42;;;;;;;6.90;6.10;;;;;;;5.45;100.00;98098.60;110955;246;40056;-71
2024/01/04 05:48:16;;;;;;;7.50;5.50;;;;;;;5.54;100.00;98097.63;110958;246;39593;-71
2024/01/04 05:50:50;;;;;;;6.40;4.60;;;;;;;5.65;100.00;98098.92;111004;246;38556;-71
2024/01/04 05:53:24;;;;;;;5.00;3.70;;;;;;;5.76;100.00;98096.42;110999;246;38309;-70
2024/01/04 05:55:58;;;;;;;5.30;3.70;;;;;;;5.88;100.00;98096.92;110745;244;331766;-73
2024/01/04 05:58:32;;;;;;;4.90;3.40;;;;;;;6.01;100.00;98094.36;111060;244;38216;-72
2024/01/04 06:01:06;;;;;;;6.80;3.40;;;;;;;6.15;100.00;98097.38;111031;244;38830;-72
2024/01/04 06:03:40;;;;;;;3.90;3.00;;;;;;;6.27;100.00;98102.77;111090;244;38530;-72
2024/01/04 06:06:16;;;;;;;6.10;3.50;;;;;;;6.40;100.00;98101.50;111106;244;38779;-72
2024/01/04 06:08:50;;;;;;;5.00;3.20;;;;;;;6.54;100.00;98100.88;111053;244;38575;-72
2024/01/04 06:11:24;;;;;;;4.60;3.40;;;;;;;6.64;100.00;98105.96;110955;244;38535;-72
2024/01/04 06:13:58;;;;;;;4.20;3.10;;;;;;;6.73;100.00;98106.34;110960;244;38320;-71
2024/01/04 06:16:33;;;;;;;5.20;3.40;;;;;;;6.82;100.00;98112.04;111002;244;38297;-73
2024/01/04 06:19:07;;;;;;;5.50;3.60;;;;;;;6.91;100.00;98114.82;110994;244;39514;-72
2024/01/04 06:21:41;;;;;;;5.20;3.70;;;;;;;6.96;100.00;98111.92;110940;244;40411;-72
2024/01/04 06:24:15;;;;;;;6.40;3.70;;;;;;;6.98;100.00;98115.26;111239;242;40228;-73
2024/01/04 06:26:49;;;;;;;6.10;3.20;;;;;;;6.98;100.00;98120.25;111253;242;39461;-72
2024/01/04 06:29:23;;;;;;;4.60;3.40;;;;;;;6.98;100.00;98115.78;111219;242;38291;-72
2024/01/04 06:31:56;;;;;;;6.10;3.40;;;;;;;6.99;100.00;98114.86;111246;242;38679;-72
2024/01/04 06:34:30;;;;;;;4.80;3.10;;;;;;;7.02;100.00;98114.34;111209;242;38747;-73
2024/01/04 06:37:03;;;;;;;4.50;2.90;;;;;;;6.99;100.00;98110.52;111217;242;38901;-73
2024/01/04 06:39:39;;;;;;;5.30;3.10;;;;;;;7.01;100.00;98108.87;111231;242;38587;-73
2024/01/04 06:42:14;;;;;;;5.20;3.70;;;;;;;7.03;100.00;98110.80;111536;239;38659;-73
2024/01/04 06:44:48;;;;;;;8.30;3.70;;;;;;;7.05;100.00;98108.59;111599;239;39568;-73
2024/01/04 06:47:22;;;;;;;6.30;3.90;;;;;;;7.07;100.00;98105.35;111629;239;39274;-72
2024/01/04 06:49:56;;;;;;;11.10;10.00;;;;;;;7.09;100.00;98107.00;111284;239;40601;-73
2024/01/04 06:52:29;;;;;;;5.60;3.90;;;;;;;7.12;100.00;98103.32;111590;239;39694;-73
2024/01/04 06:55:05;;;;;;;6.00;3.20;;;;;;;7.13;100.00;98103.43;111483;239;38971;-73
2024/01/04 06:57:38;;;;;;;7.10;3.80;;;;;;;7.18;100.00;98108.16;111484;240;38479;-72
2024/01/04 07:00:15;;;;;;;4.80;3.50;;;;;;;7.22;100.00;98108.23;111464;240;38665;-74
2024/01/04 07:02:49;;;;;;;5.40;3.40;;;;;;;7.21;100.00;98103.83;111488;240;38676;-74
2024/01/04 07:05:22;;;;;;;6.10;3.50;;;;;;;7.20;100.00;98103.21;111504;239;38543;-74
2024/01/04 07:07:56;;;;;;;4.90;3.40;;;;;;;7.19;100.00;98104.84;111464;240;39065;-74
2024/01/04 07:10:30;;;;;;;7.70;3.90;;;;;;;7.20;100.00;98105.45;111479;240;38515;-72
2024/01/04 07:13:04;;;;;;;5.10;2.90;;;;;;;7.20;100.00;98108.39;111511;240;38927;-71
2024/01/04 07:15:37;;;;;;;6.60;4.00;;;;;;;7.21;100.00;98104.02;110791;239;907850;-73
2024/01/04 07:18:11;;;;;;;6.10;3.90;;;;;;;7.25;100.00;98100.11;111472;239;40159;-74
2024/01/04 07:20:44;;;;;;;5.80;3.60;;;;;;;7.30;100.00;98097.60;111495;240;38838;-72
2024/01/04 07:23:19;;;;;;;5.80;3.60;;;;;;;7.32;100.00;98098.17;111499;240;39096;-72
2024/01/04 07:25:55;;;;;;;6.30;3.90;;;;;;;7.33;100.00;98098.61;111477;239;38747;-73
2024/01/04 07:28:29;;;;;;;4.00;3.30;;;;;;;7.35;100.00;98095.90;111435;239;38566;-72
2024/01/04 07:31:03;;;;;;;5.40;3.10;;;;;;;7.40;100.00;98101.65;111503;240;38695;-72
2024/01/04 07:33:37;;;;;;;5.40;3.90;;;;;;;7.41;100.00;98096.73;111475;239;38342;-72
2024/01/04 07:36:11;;;;;;;6.00;3.80;;;;;;;7.39;100.00;98102.89;111485;239;39017;-74
2024/01/04 07:38:46;;;;;;;4.20;3.40;;;;;;;7.39;100.00;98100.30;111478;240;38408;-73
2024/01/04 07:41:20;;;;;;;4.80;4.00;;;;;;;7.41;100.00;98099.87;111499;239;38286;-73
2024/01/04 07:43:53;;;;;;;5.90;3.80;;;;;;;7.43;100.00;98101.78;111503;240;39219;-74
2024/01/04 07:46:27;;;;;;;5.40;3.50;;;;;;;7.47;100.00;98102.42;111508;240;39145;-72
2024/01/04 07:49:01;;;;;;;7.10;3.80;;;;;;;7.51;100.00;98098.70;111485;239;38682;-72
2024/01/04 07:51:34;;;;;;;4.80;3.40;;;;;;;7.55;100.00;98099.85;111515;240;39038;-73
2024/01/04 07:54:08;;;;;;;5.90;3.70;;;;;;;7.58;100.00;98100.20;111503;239;38670;-73
2024/01/04 07:56:42;;;;;;;8.90;3.80;;;;;;;7.58;100.00;98103.64;111303;240;38274;-73
2024/01/04 07:59:17;;;;;;;5.10;3.50;;;;;;;7.57;100.00;98100.92;111457;239;38853;-71
2024/01/04 08:01:50;;;;;;;4.90;3.20;;;;;;;7.57;100.00;98106.68;111298;240;39631;-71
2024/01/04 08:04:24;;;;;;;4.40;3.50;;;;;;;7.59;100.00;98102.55;111480;239;38334;-72
2024/01/04 08:06:58;;;;;;;4.60;3.20;;;;;;;7.64;100.00;98104.52;111546;239;39118;-71
2024/01/04 08:09:32;;;;;;;5.30;3.90;;;;;;;7.65;100.00;98101.63;111516;239;38648;-73
2024/01/04 08:12:09;;;;;;;7.30;4.30;;;;;;;7.68;100.00;98102.33;111484;239;38927;-74
2024/01/04 08:14:45;;;;;;;5.50;3.60;;;;;;;7.67;100.00;98099.75;111484;239;38450;-74
2024/01/04 08:17:19;;;;;;;5.70;3.70;;;;;;;7.66;100.00;98100.86;111497;240;38405;-74
2024/01/04 08:19:53;;;;;;;7.60;3.80;;;;;;;7.68;100.00;98104.75;111493;239;38333;-73
2024/01/04 08:22:26;;;;;;;4.50;3.60;;;;;;;7.70;100.00;98104.44;111478;239;38996;-73
2024/01/04 08:25:00;;;;;;;6.30;4.30;;;;;;;7.74;100.00;98101.09;111518;240;38223;-73
2024/01/04 08:27:34;;;;;;;5.30;4.30;;;;;;;7.81;100.00;98100.64;111490;239;38261;-74
2024/01/04 08:30:10;;;;;;;5.70;3.90;;;;;;;7.85;100.00;98104.77;111478;239;39483;-72
2024/01/04 08:32:44;;;;;;;7.00;4.60;;;;;;;7.88;100.00;98103.48;111454;240;38476;-72
2024/01/04 08:35:18;;;;;;;5.30;4.40;;;;;;;7.87;100.00;98104.23;111531;240;38850;-71
2024/01/04 08:37:52;;;;;;;4.80;4.00;;;;;;;7.88;100.00;98106.30;111495;240;38543;-73
2024/01/04 08:40:27;;;;;;;8.90;4.60;;;;;;;7.89;100.00;98109.66;111543;239;39870;-71
2024/01/04 08:43:01;;;;;;;6.20;4.20;;;;;;;7.91;100.00;98108.14;111431;239;38324;-72
2024/01/04 08:45:34;;;;;;;6.40;4.60;;;;;;;7.95;100.00;98109.30;111506;240;38420;-71
2024/01/04 08:48:09;;;;;;;5.70;4.40;;;;;;;8.00;100.00;98109.33;111347;239;175217;-71
2024/01/04 08:50:43;;;;;;;5.50;4.40;;;;;;;8.07;100.00;98106.48;111482;239;39853;-72
2024/01/04 08:53:20;;;;;;;5.00;4.50;;;;;;;8.12;100.00;98111.52;111472;240;38797;-72
2024/01/04 08:55:55;;;;;;;6.80;4.20;;;;;;;8.14;100.00;98112.63;111513;239;38432;-71
2024/01/04 08:58:29;;;;;;;5.90;4.60;;;;;;;8.15;100.00;98115.98;111500;240;38375;-71
2024/01/04 09:01:03;;;;;;;5.60;4.50;;;;;;;8.17;100.00;98117.63;111490;239;38246;-72
2024/01/04 09:03:37;;;;;;;6.80;4.80;;;;;;;8.18;100.00;98118.06;111463;240;39491;-71
2024/01/04 09:06:12;;;;;;;6.80;5.00;;;;;;;8.18;100.00;98121.58;111454;239;38851;-72
2024/01/04 09:08:45;;;;;;;5.70;4.80;;;;;;;8.19;100.00;98121.34;111463;239;38810;-71
2024/01/04 09:11:20;;;;;;;6.50;5.40;;;;;;;8.19;100.00;98126.55;111526;240;38463;-71
2024/01/04 09:13:54;;;;;;;6.00;4.30;;;;;;;8.17;100.00;98125.10;111519;239;40135;-71
2024/01/04 09:16:28;;;;;;;6.10;4.50;;;;;;;8.16;100.00;98121.66;111548;239;38278;-73
2024/01/04 09:19:03;;;;;;;6.20;4.00;;;;;;;8.16;100.00;98124.11;111542;239;39107;-73
2024/01/04 09:21:36;;;;;;;5.10;4.10;;;;;;;8.17;100.00;98124.76;111531;239;38898;-72
2024/01/04 09:24:12;;;;;;;4.00;3.60;;;;;;;8.18;100.00;98123.14;111496;239;39629;-71
2024/01/04 09:26:46;;;;;;;5.90;4.50;;;;;;;8.19;100.00;98123.71;111536;240;38695;-72
2024/01/04 09:29:19;;;;;;;6.20;4.80;;;;;;;8.21;100.00;98126.77;111518;239;38436;-72
2024/01/04 09:31:55;;;;;;;5.60;4.60;;;;;;;8.21;100.00;98125.02;111485;240;38292;-72
2024/01/04 09:34:29;;;;;;;5.70;3.70;;;;;;;8.20;100.00;98124.52;111460;240;39435;-72
2024/01/04 09:37:04;;;;;;;6.20;3.70;;;;;;;8.20;100.00;98123.50;111294;240;38265;-73
2024/01/04 09:39:39;;;;;;;5.00;4.20;;;;;;;8.22;100.00;98125.61;111459;240;39761;-73
2024/01/04 09:42:14;;;;;;;4.60;3.50;;;;;;;8.26;100.00;98123.32;111493;239;38494;-72
2024/01/04 09:44:48;;;;;;;4.30;3.70;;;;;;;8.29;100.00;98122.08;111526;240;38322;-72
2024/01/04 09:47:21;;;;;;;4.50;3.90;;;;;;;8.30;100.00;98120.29;111518;239;39625;-71
2024/01/04 09:49:55;;;;;;;4.70;3.70;;;;;;;8.31;100.00;98116.72;111521;239;38816;-72
2024/01/04 09:52:29;;;;;;;3.80;3.30;;;;;;;8.31;100.00;98122.64;111469;240;40447;-71
2024/01/04 09:55:03;;;;;;;4.40;3.40;;;;;;;8.31;100.00;98119.48;111543;239;38788;-71
2024/01/04 09:57:37;;;;;;;4.00;3.60;;;;;;;8.32;100.00;98119.11;111472;240;39882;-71
2024/01/04 10:00:15;;;;;;;5.60;3.20;;;;;;;8.33;100.00;98125.63;111493;239;38204;-72
2024/01/04 10:02:49;;;;;;;4.10;3.60;;;;;;;8.37;100.00;98126.80;111523;240;38738;-71
2024/01/04 10:05:23;;;;;;;5.80;3.70;;;;;;;8.37;100.00;98123.11;111538;240;38927;-71
2024/01/04 10:08:12;;;;;;;4.10;3.70;;;;;;;8.35;100.00;98125.53;111497;240;38831;-72
2024/01/04 10:10:48;;;;;;;4.20;3.60;;;;;;;8.32;100.00;98126.94;111508;240;38533;-72
2024/01/04 10:13:22;;;;;;;4.90;3.80;;;;;;;8.30;100.00;98127.39;111570;240;39537;-72
2024/01/04 10:15:56;;;;;;;7.40;4.60;;;;;;;8.32;100.00;98124.85;111539;239;39190;-72
2024/01/04 10:18:30;;;;;;;4.20;3.80;;;;;;;8.35;100.00;98122.05;111495;240;38486;-72
2024/01/04 10:21:08;;;;;;;6.10;4.10;;;;;;;8.35;100.00;98126.23;111585;240;38993;-72
2024/01/04 10:23:42;;;;;;;5.00;3.90;;;;;;;8.37;100.00;98126.45;111515;240;39783;-72
2024/01/04 10:26:18;;;;;;;6.40;3.60;;;;;;;8.39;100.00;98126.69;111536;239;38260;-71
2024/01/04 10:28:59;;;;;;;3.90;3.10;;;;;;;8.43;100.00;98128.11;111525;240;38839;-72
2024/01/04 10:31:34;;;;;;;5.70;3.50;;;;;;;8.52;100.00;98129.31;111501;240;38339;-70
2024/01/04 10:34:09;;;;;;;4.60;3.60;;;;;;;8.54;100.00;98127.61;111502;240;39471;-72
2024/01/04 10:36:43;;;;;;;4.30;3.80;;;;;;;8.58;100.00;98129.95;111553;240;39127;-73
2024/01/04 10:39:20;;;;;;;5.30;4.00;;;;;;;8.62;100.00;98130.73;111477;240;38308;-73
2024/01/04 10:42:03;;;;;;;3.80;3.30;;;;;;;8.62;100.00;98126.92;111510;240;38247;-72
2024/01/04 10:44:39;;;;;;;6.00;3.40;;;;;;;8.65;100.00;98127.40;111454;239;38213;-71
2024/01/04 10:47:14;;;;;;;3.80;2.80;;;;;;;8.68;100.00;98125.45;111484;239;38968;-72
2024/01/04 10:49:50;;;;;;;4.80;3.60;;;;;;;8.71;100.00;98128.88;111525;239;38313;-73
2024/01/04 10:52:24;;;;;;;5.10;3.70;;;;;;;8.74;100.00;98127.10;111504;239;38742;-72
2024/01/04 10:54:58;;;;;;;4.40;4.00;;;;;;;8.77;100.00;98121.88;111505;239;39077;-73
2024/01/04 10:57:33;;;;;;;3.70;3.30;;;;;;;8.77;100.00;98123.42;111505;240;38273;-73
2024/01/04 11:00:09;;;;;;;4.10;3.70;;;;;;;8.76;100.00;98119.67;111488;239;38675;-71
2024/01/04 11:02:43;;;;;;;4.60;3.50;;;;;;;8.76;100.00;98115.38;111513;240;38543;-72
2024/01/04 11:05:18;;;;;;;4.60;3.50;;;;;;;8.77;100.00;98117.71;111513;240;38321;-72
2024/01/04 11:07:51;;;;;;;5.10;4.00;;;;;;;8.76;100.00;98119.50;111497;239;38244;-74
2024/01/04 11:10:26;;;;;;;4.50;4.00;;;;;;;8.79;100.00;98119.34;111530;239;38525;-73
2024/01/04 11:13:00;;;;;;;4.80;4.10;;;;;;;8.79;100.00;98117.25;111465;239;39526;-73
2024/01/04 11:15:33;;;;;;;5.50;3.90;;;;;;;8.78;100.00;98120.05;111470;239;39602;-73
2024/01/04 11:18:19;;;;;;;5.90;4.40;;;;;;;8.82;100.00;98120.57;111493;239;39955;-72
2024/01/04 11:21:04;;;;;;;6.10;4.10;;;;;;;8.85;100.00;98115.45;111383;239;175458;-72
2024/01/04 11:23:52;;;;;;;5.70;4.60;;;;;;;8.88;100.00;98120.11;111501;240;39773;-72
2024/01/04 11:26:29;;;;;;;6.40;4.80;;;;;;;8.87;100.00;98115.84;111293;239;38756;-73
2024/01/04 11:29:08;;;;;;;5.10;4.60;;;;;;;8.84;100.00;98116.09;111484;240;38493;-73
2024/01/04 11:31:46;;;;;;;5.90;4.60;;;;;;;8.83;100.00;98121.51;111472;239;38828;-73
2024/01/04 11:34:21;;;;;;;4.80;4.20;;;;;;;8.84;100.00;98121.30;111448;239;38539;-73
2024/01/04 11:37:08;;;;;;;5.30;4.40;;;;;;;8.84;100.00;98119.86;111492;240;38495;-73
2024/01/04 11:40:07;;;;;;;5.80;4.50;;;;;;;8.88;100.00;98118.95;111396;239;175195;-73
2024/01/04 11:42:42;;;;;;;5.30;4.50;;;;;;;8.89;100.00;98117.14;111517;239;38776;-73
2024/01/04 11:45:19;;;;;;;6.60;5.40;;;;;;;8.89;100.00;98118.67;111529;239;38531;-73
2024/01/04 11:47:52;;;;;;;5.60;4.90;;;;;;;8.88;100.00;98116.48;111485;239;38444;-71
2024/01/04 11:50:29;;;;;;;4.90;4.30;;;;;;;8.86;100.00;98113.98;111518;239;39354;-72
2024/01/04 11:53:10;;;;;;;6.70;4.70;;;;;;;8.84;100.00;98113.27;111377;239;175526;-72
2024/01/04 11:55:44;;;;;;;6.90;4.60;;;;;;;8.86;100.00;98115.20;111535;239;39236;-69
2024/01/04 11:58:28;;;;;;;5.00;4.50;;;;;;;8.87;100.00;98113.78;111533;239;38271;-71
2024/01/04 12:01:02;;;;;;;5.40;4.70;;;;;;;8.88;100.00;98113.17;111520;239;39541;-74
2024/01/04 12:03:36;;;;;;;6.10;5.50;;;;;;;8.88;100.00;98112.84;111483;239;38808;-74
2024/01/04 12:06:10;;;;;;;6.20;4.70;;;;;;;8.85;100.00;98114.23;111460;239;39581;-73
2024/01/04 12:08:44;;;;;;;5.40;4.60;;;;;;;8.85;100.00;98111.14;111488;239;39610;-74
2024/01/04 12:11:20;;;;;;;5.90;4.40;;;;;;;8.86;100.00;98112.42;111479;239;39638;-72
2024/01/04 12:13:54;;;;;;;5.20;4.60;;;;;;;8.87;100.00;98114.47;111469;239;39908;-72
2024/01/04 12:16:27;;;;;;;7.70;4.80;;;;;;;8.87;100.00;98116.71;111518;239;39206;-71
2024/01/04 12:19:02;;;;;;;5.70;5.10;;;;;;;8.85;100.00;98116.52;111509;239;38368;-72
2024/01/04 12:21:36;;;;;;;5.40;4.80;;;;;;;8.84;100.00;98119.55;111529;239;39248;-72
2024/01/04 12:24:11;;;;;;;5.50;4.00;;;;;;;8.82;100.00;98122.42;111494;239;39184;-71
2024/01/04 12:26:45;;;;;;;5.70;4.00;;;;;;;8.83;100.00;98127.79;111497;239;39015;-72
2024/01/04 12:29:20;;;;;;;4.50;3.80;;;;;;;8.84;100.00;98126.83;111486;239;38904;-73
2024/01/04 12:31:57;;;;;;;5.20;4.00;;;;;;;8.85;100.00;98130.25;111490;239;38446;-70
2024/01/04 12:34:33;;;;;;;4.80;3.90;;;;;;;8.86;100.00;98128.26;111463;239;38421;-72
2024/01/04 12:37:10;;;;;;;3.80;3.30;;;;;;;8.84;100.00;98131.69;111493;239;39460;-70
2024/01/04 12:39:47;;;;;;;5.00;3.40;;;;;;;8.84;100.00;98134.11;111552;239;38708;-70
2024/01/04 12:42:22;;;;;;;4.40;3.40;;;;;;;8.84;100.00;98133.06;111498;239;39439;-69
2024/01/04 12:44:55;;;;;;;4.50;3.80;;;;;;;8.85;100.00;98132.45;111567;239;39434;-71
2024/01/04 12:47:31;;;;;;;8.70;4.00;;;;;;;8.86;100.00;98130.15;111518;239;38553;-71
2024/01/04 12:50:08;;;;;;;5.00;4.10;;;;;;;8.86;100.00;98132.59;111494;239;38255;-72
2024/01/04 12:52:43;;;;;;;4.70;4.20;;;;;;;8.86;100.00;98134.35;111494;239;38253;-71
2024/01/04 12:55:17;;;;;;;5.00;3.70;;;;;;;8.84;100.00;98132.73;111544;239;38312;-72
2024/01/04 12:57:51;;;;;;;5.20;4.10;;;;;;;8.84;100.00;98132.02;111493;239;38612;-71
2024/01/04 13:00:25;;;;;;;5.60;4.00;;;;;;;8.88;100.00;98133.70;111513;239;38955;-72
2024/01/04 13:02:59;;;;;;;5.40;4.00;;;;;;;8.90;100.00;98133.20;111485;239;39431;-73
2024/01/04 13:05:35;;;;;;;4.80;4.00;;;;;;;8.91;100.00;98129.34;111497;239;40105;-72
2024/01/04 13:08:09;;;;;;;4.40;4.00;;;;;;;8.91;100.00;98129.84;111456;239;38443;-73
2024/01/04 13:10:43;;;;;;;4.60;3.70;;;;;;;8.93;100.00;98132.84;111514;239;38491;-72
2024/01/04 13:13:17;;;;;;;4.30;3.60;;;;;;;8.95;100.00;98132.16;111157;239;177667;-73
2024/01/04 13:15:51;;;;;;;4.90;3.70;;;;;;;8.95;100.00;98134.93;111478;239;38541;-74
2024/01/04 13:18:25;;;;;;;5.30;3.90;;;;;;;8.93;99.94;98133.19;111470;239;38261;-72
2024/01/04 13:20:59;;;;;;;5.50;3.60;;;;;;;8.92;99.93;98137.96;111480;239;38249;-72
2024/01/04 13:23:33;;;;;;;4.90;3.80;;;;;;;8.89;99.73;98141.81;111492;239;38396;-72
2024/01/04 13:26:08;;;;;;;4.60;3.50;;;;;;;8.84;99.11;98141.94;111498;239;38348;-72
2024/01/04 13:28:41;;;;;;;3.80;3.00;;;;;;;8.81;99.29;98145.61;111276;239;38239;-72
2024/01/04 13:31:15;;;;;;;4.50;3.60;;;;;;;8.77;99.11;98148.81;111477;239;39847;-72
2024/01/04 13:33:51;;;;;;;4.50;3.50;;;;;;;8.74;98.95;98154.39;111498;239;38263;-72
2024/01/04 13:36:25;;;;;;;5.70;3.60;;;;;;;8.69;99.04;98156.11;111486;239;39512;-73
2024/01/04 13:38:59;;;;;;;4.90;3.80;;;;;;;8.66;99.18;98160.69;111516;239;38200;-71
2024/01/04 13:41:32;;;;;;;4.70;3.70;;;;;;;8.62;98.97;98159.55;111518;239;39722;-72
2024/01/04 13:44:06;;;;;;;5.10;3.80;;;;;;;8.59;98.96;98164.09;111527;239;38230;-73
2024/01/04 13:46:40;;;;;;;4.20;3.60;;;;;;;8.58;99.09;98165.43;111461;239;39538;-72
2024/01/04 13:49:14;;;;;;;3.40;3.10;;;;;;;8.56;98.78;98167.61;111472;239;38360;-72
2024/01/04 13:51:48;;;;;;;4.60;3.10;;;;;;;8.52;98.72;98169.44;111469;239;39468;-72
2024/01/04 13:54:22;;;;;;;4.50;3.60;;;;;;;8.49;98.89;98170.45;111461;239;39405;-71
2024/01/04 13:56:57;;;;;;;5.30;3.60;;;;;;;8.51;99.20;98169.13;111384;239;181854;-72
2024/01/04 13:59:32;;;;;;;3.50;2.50;;;;;;;8.47;98.53;98174.62;111469;239;38361;-73
2024/01/04 14:02:06;;;;;;;3.20;2.60;;;;;;;8.44;98.72;98174.33;111382;239;175219;-73
2024/01/04 14:04:42;;;;;;;3.00;2.60;;;;;;;8.42;98.54;98176.19;111474;239;39466;-70
2024/01/04 14:07:16;;;;;;;2.70;2.10;;;;;;;8.37;98.41;98174.73;111483;239;39624;-75
2024/01/04 14:09:50;;;;;;;3.10;2.50;;;;;;;8.35;98.58;98176.25;111459;239;38747;-73
2024/01/04 14:12:24;;;;;;;5.40;2.90;;;;;;;8.32;98.46;98175.05;111533;239;38741;-72
2024/01/04 14:14:58;;;;;;;3.40;2.60;;;;;;;8.26;98.48;98177.98;111537;239;39710;-74
2024/01/04 14:17:31;;;;;;;3.40;2.50;;;;;;;8.21;98.54;98180.39;111315;239;41282;-73
2024/01/04 14:20:08;;;;;;;11.50;3.90;;;;;;;8.18;98.57;98179.39;111468;239;38214;-72
2024/01/04 14:22:42;;;;;;;5.10;4.10;;;;;;;8.16;98.86;98178.29;111487;239;39753;-72
2024/01/04 14:25:16;;;;;;;5.00;3.20;;;;;;;8.18;98.93;98183.94;111498;239;39459;-73
2024/01/04 14:27:50;;;;;;;6.70;4.50;;;;;;;8.16;98.88;98185.20;111517;239;38243;-72
2024/01/04 14:30:24;;;;;;;5.80;3.30;;;;;;;8.16;98.92;98187.20;111489;239;39493;-75
2024/01/04 14:32:57;;;;;;;4.10;2.90;;;;;;;8.12;98.84;98191.05;111486;239;38312;-72
2024/01/04 14:35:31;;;;;;;2.70;2.50;;;;;;;8.08;98.61;98190.60;111484;239;38468;-74
2024/01/04 14:38:06;;;;;;;2.90;2.40;;;;;;;8.05;98.55;98190.30;111530;239;38422;-73
2024/01/04 14:40:43;;;;;;;4.30;3.00;;;;;;;8.01;98.56;98194.34;111535;239;38419;-74
2024/01/04 14:43:17;;;;;;;3.60;2.70;;;;;;;8.01;98.69;98198.48;111283;240;39364;-75
2024/01/04 14:45:51;;;;;;;4.40;2.70;;;;;;;7.99;98.61;98200.02;111462;240;38834;-73
2024/01/04 14:48:26;;;;;;;5.50;3.70;;;;;;;7.98;98.85;98200.07;111146;240;175539;-71
2024/01/04 14:51:00;;;;;;;3.90;2.90;;;;;;;7.97;98.94;98199.80;111440;240;38729;-70
2024/01/04 14:53:34;;;;;;;3.70;3.20;;;;;;;7.95;98.84;98197.50;111404;240;38257;-70
2024/01/04 14:56:11;;;;;;;4.50;3.00;;;;;;;7.95;98.91;98195.95;111437;240;39481;-74
2024/01/04 14:58:48;;;;;;;5.00;4.00;;;;;;;7.94;98.70;98195.81;111413;240;40058;-72
2024/01/04 15:01:25;;;;;;;6.40;5.20;;;;;;;7.94;98.68;98197.94;111456;240;38524;-71
2024/01/04 15:04:00;;;;;;;4.40;4.00;;;;;;;7.94;98.89;98197.55;111523;240;38341;-72
2024/01/04 15:06:36;;;;;;;6.00;4.90;;;;;;;7.93;98.83;98199.37;111296;240;38246;-74
2024/01/04 15:09:15;;;;;;;6.40;4.20;;;;;;;7.93;98.93;98200.07;111444;240;38615;-73
2024/01/04 15:11:49;;;;;;;4.60;4.10;;;;;;;7.92;98.83;98201.51;111430;240;38296;-71
2024/01/04 15:14:23;;;;;;;6.80;5.40;;;;;;;7.91;98.80;98200.19;111255;240;38236;-70
2024/01/04 15:17:03;;;;;;;4.80;4.00;;;;;;;7.89;98.93;98199.23;111459;240;38468;-69
2024/01/04 15:19:46;;;;;;;5.90;4.70;;;;;;;7.90;98.98;98198.02;111453;240;38247;-72
2024/01/04 15:22:20;;;;;;;5.40;4.90;;;;;;;7.91;98.99;98199.34;111243;240;38288;-74
2024/01/04 15:24:56;;;;;;;4.70;4.10;;;;;;;7.89;98.96;98196.51;111411;240;38250;-74
2024/01/04 15:27:30;;;;;;;7.10;4.80;;;;;;;7.89;99.37;98198.58;111382;240;38691;-74
2024/01/04 15:30:08;;;;;;;5.60;4.20;;;;;;;7.89;99.10;98205.52;111456;240;38702;-72
2024/01/04 15:32:42;;;;;;;5.60;4.30;;;;;;;7.87;98.79;98209.80;111439;240;38858;-71
2024/01/04 15:35:16;;;;;;;5.30;4.50;;;;;;;7.83;98.55;98208.98;111423;240;39103;-73
2024/01/04 15:37:51;;;;;;;5.60;4.60;;;;;;;7.82;98.74;98205.08;111448;240;38553;-73
2024/01/04 15:40:24;;;;;;;5.80;4.60;;;;;;;7.83;98.91;98203.80;111395;240;38653;-72
2024/01/04 15:42:59;;;;;;;6.70;4.60;;;;;;;7.85;99.10;98200.41;111509;239;38419;-71
2024/01/04 15:45:33;;;;;;;5.30;4.60;;;;;;;7.82;98.73;98203.37;111502;239;39916;-73
2024/01/04 15:48:07;;;;;;;5.60;4.40;;;;;;;7.78;98.63;98206.19;111509;239;38248;-73
2024/01/04 15:50:41;;;;;;;5.20;4.50;;;;;;;7.76;98.59;98208.02;111308;239;38336;-73
2024/01/04 15:53:15;;;;;;;5.00;4.10;;;;;;;7.77;98.81;98207.83;111486;239;39430;-72
2024/01/04 15:55:49;;;;;;;6.60;4.80;;;;;;;7.78;98.78;98208.28;111503;239;38423;-70
2024/01/04 15:58:23;;;;;;;7.70;5.50;;;;;;;7.78;98.64;98213.64;111506;239;38201;-74
2024/01/04 16:00:56;;;;;;;7.30;5.40;;;;;;;7.76;98.53;98213.58;111543;239;39440;-74
2024/01/04 16:03:30;;;;;;;5.70;4.00;;;;;;;7.71;98.39;98214.23;111495;239;38500;-72
2024/01/04 16:06:04;;;;;;;4.80;3.80;;;;;;;7.62;97.71;98225.02;111201;239;175558;-73
2024/01/04 16:08:38;;;;;;;4.90;3.70;;;;;;;7.57;97.73;98228.14;111509;239;38843;-73
2024/01/04 16:11:12;;;;;;;3.10;2.10;;;;;;;7.52;97.19;98232.58;111506;239;39472;-72
2024/01/04 16:13:52;;;;;;;3.40;2.10;;;;;;;7.40;96.26;98231.02;111502;239;38246;-72
2024/01/04 16:16:26;;;;;;;10.40;7.30;;;;;;;7.31;96.22;98240.27;111470;239;38714;-73
2024/01/04 16:19:00;;;;;;;6.00;4.10;;;;;;;7.23;96.11;98245.70;111499;239;38434;-73
2024/01/04 16:21:34;;;;;;;4.70;3.20;;;;;;;7.18;96.54;98250.89;111546;239;38649;-74
2024/01/04 16:24:11;;;;;;;5.20;3.20;;;;;;;7.16;96.63;98261.06;111510;239;39004;-75
2024/01/04 16:26:45;;;;;;;4.80;3.10;;;;;;;7.10;96.44;98262.24;111542;239;38315;-74
2024/01/04 16:29:22;;;;;;;5.00;3.70;;;;;;;7.03;96.13;98264.73;111502;239;39011;-71
2024/01/04 16:31:58;;;;;;;5.50;3.90;;;;;;;6.96;96.11;98270.19;111507;239;38473;-71
2024/01/04 16:34:32;;;;;;;11.60;8.60;;;;;;;6.92;96.37;98270.73;111497;239;39987;-72
2024/01/04 16:37:07;;;;;;;3.80;2.70;;;;;;;6.88;96.52;98271.35;111521;239;39473;-72
2024/01/04 16:39:42;;;;;;;3.50;2.40;;;;;;;6.87;96.89;98272.09;110812;239;909529;-70
2024/01/04 16:42:16;;;;;;;4.80;3.60;;;;;;;6.87;97.00;98274.31;111526;239;39390;-72
2024/01/04 16:44:50;;;;;;;2.20;1.70;;;;;;;6.83;96.48;98277.84;111388;239;38440;-74
2024/01/04 16:47:24;;;;;;;2.70;2.20;;;;;;;6.79;96.41;98281.17;111481;239;38844;-75
2024/01/04 16:49:59;;;;;;;3.40;2.50;;;;;;;6.75;96.06;98284.71;111527;239;38379;-73
2024/01/04 16:52:34;;;;;;;5.70;3.30;;;;;;;6.70;96.15;98286.89;111500;239;38260;-75
2024/01/04 16:55:12;;;;;;;4.50;2.50;;;;;;;6.66;96.19;98293.34;111536;239;38597;-74
2024/01/04 16:57:47;;;;;;;2.70;1.80;;;;;;;6.62;95.94;98296.00;111537;239;38621;-74
2024/01/04 17:00:21;;;;;;;2.50;1.50;;;;;;;6.57;95.66;98305.30;111589;239;38231;-71
2024/01/04 17:02:55;;;;;;;2.40;1.50;;;;;;;6.54;95.72;98309.26;111524;239;38262;-70
2024/01/04 17:05:30;;;;;;;3.50;2.30;;;;;;;6.50;95.48;98312.41;111508;239;38264;-73
2024/01/04 17:08:05;;;;;;;2.10;1.60;;;;;;;6.44;95.16;98321.41;111504;239;39752;-72
2024/01/04 17:10:40;;;;;;;2.40;1.60;;;;;;;6.36;95.16;98323.72;111524;239;39016;-71
2024/01/04 17:13:14;;;;;;;2.70;1.80;;;;;;;6.31;95.18;98324.70;111472;239;39381;-71
2024/01/04 17:15:47;;;;;;;3.90;1.50;;;;;;;6.27;95.20;98332.20;111518;239;39890;-71
2024/01/04 17:18:21;;;;;;;4.90;2.00;;;;;;;6.25;95.24;98331.45;111481;239;39620;-71
2024/01/04 17:20:55;;;;;;;1.90;1.60;;;;;;;6.22;95.13;98334.01;111517;239;39749;-72
2024/01/04 17:23:29;;;;;;;5.40;1.80;;;;;;;6.15;94.71;98333.30;111490;239;39064;-71
2024/01/04 17:26:03;;;;;;;3.20;1.70;;;;;;;6.10;94.72;98337.40;111480;239;38425;-74
2024/01/04 17:28:38;;;;;;;2.90;1.90;;;;;;;6.07;94.85;98341.73;111294;239;38394;-74
2024/01/04 17:31:12;;;;;;;2.90;1.80;;;;;;;6.05;94.94;98345.30;111532;239;38431;-73
2024/01/04 17:33:49;;;;;;;3.30;2.30;;;;;;;6.05;94.99;98347.73;111522;239;38434;-74
2024/01/04 17:36:23;;;;;;;4.10;2.00;;;;;;;6.01;94.85;98349.45;111458;239;38346;-72
2024/01/04 17:38:57;;;;;;;3.30;2.20;;;;;;;5.96;94.70;98351.79;111527;239;38850;-71
2024/01/04 17:41:31;;;;;;;2.60;2.00;;;;;;;5.89;94.57;98356.42;111260;239;38527;-71
2024/01/04 17:44:05;;;;;;;3.10;2.00;;;;;;;5.85;94.58;98358.76;111494;239;39170;-72
2024/01/04 17:46:42;;;;;;;3.00;2.10;;;;;;;5.79;94.26;98361.82;111546;239;38418;-73
2024/01/04 17:49:17;;;;;;;3.20;1.90;;;;;;;5.76;94.37;98364.41;111549;239;38919;-74
2024/01/04 17:51:51;;;;;;;3.60;1.80;;;;;;;5.75;94.61;98367.19;111529;239;40765;-74
2024/01/04 17:54:25;;;;;;;3.20;1.80;;;;;;;5.76;94.82;98371.84;111522;239;38749;-73